createdAt,value
2022-10-17T00:00:10.413Z,16.98
2022-10-17T00:03:03.071Z,16.96
2022-10-17T00:05:35.605Z,16.95
2022-10-17T00:08:08.278Z,16.93
2022-10-17T00:10:43.609Z,16.88
2022-10-17T00:13:16.275Z,16.90
2022-10-17T00:15:51.711Z,16.87
2022-10-17T00:18:25.794Z,16.77
2022-10-17T00:20:58.449Z,16.72
2022-10-17T00:23:31.985Z,16.74
2022-10-17T00:26:07.872Z,16.75
2022-10-17T00:28:40.795Z,16.75
2022-10-17T00:31:13.182Z,16.73
2022-10-17T00:33:47.289Z,16.73
2022-10-17T00:36:21.889Z,16.69
2022-10-17T00:39:01.498Z,16.67
2022-10-17T00:41:36.521Z,16.66
2022-10-17T00:44:24.669Z,16.64
2022-10-17T00:46:57.180Z,16.64
2022-10-17T00:49:32.999Z,16.63
2022-10-17T00:52:10.738Z,16.61
2022-10-17T00:54:44.704Z,16.60
2022-10-17T00:57:17.257Z,16.57
2022-10-17T00:59:55.036Z,16.50
2022-10-17T01:02:29.171Z,16.48
2022-10-17T01:05:03.218Z,16.48
2022-10-17T01:07:37.316Z,16.44
2022-10-17T01:10:11.527Z,16.45
2022-10-17T01:13:02.045Z,16.43
2022-10-17T01:15:46.630Z,16.44
2022-10-17T01:18:25.743Z,16.43
2022-10-17T01:21:28.248Z,16.44
2022-10-17T01:24:47.934Z,16.38
2022-10-17T01:27:43.306Z,16.33
2022-10-17T01:30:50.586Z,16.30
2022-10-17T01:33:37.006Z,16.23
2022-10-17T01:36:14.191Z,16.20
2022-10-17T01:38:52.224Z,16.13
2022-10-17T01:41:31.274Z,16.12
2022-10-17T01:44:06.510Z,16.15
2022-10-17T01:46:40.123Z,16.14
2022-10-17T01:49:17.398Z,16.18
2022-10-17T01:51:52.736Z,16.19
2022-10-17T01:54:28.888Z,16.16
2022-10-17T01:57:03.997Z,16.13
2022-10-17T01:59:40.339Z,16.11
2022-10-17T02:02:12.955Z,16.09
2022-10-17T02:04:45.881Z,16.09
2022-10-17T02:07:20.569Z,16.12
2022-10-17T02:09:56.544Z,16.11
2022-10-17T02:12:48.883Z,16.13
2022-10-17T02:15:52.865Z,16.10
2022-10-17T02:18:43.185Z,15.99
2022-10-17T02:21:22.530Z,15.91
2022-10-17T02:23:59.791Z,15.83
2022-10-17T02:26:38.733Z,15.79
2022-10-17T02:29:15.906Z,15.78
2022-10-17T02:31:50.089Z,15.78
2022-10-17T02:34:26.177Z,15.76
2022-10-17T02:37:02.585Z,15.73
2022-10-17T02:39:37.095Z,15.72
2022-10-17T02:42:12.830Z,15.70
2022-10-17T02:44:47.222Z,15.66
2022-10-17T02:47:26.784Z,15.60
2022-10-17T02:50:04.371Z,15.58
2022-10-17T02:52:42.818Z,15.51
2022-10-17T02:55:18.146Z,15.53
2022-10-17T02:57:52.059Z,15.53
2022-10-17T03:00:25.376Z,15.54
2022-10-17T03:02:59.690Z,15.54
2022-10-17T03:05:33.109Z,15.56
2022-10-17T03:08:06.366Z,15.58
2022-10-17T03:10:41.029Z,15.62
2022-10-17T03:13:14.387Z,15.63
2022-10-17T03:15:47.294Z,15.57
2022-10-17T03:18:23.837Z,15.53
2022-10-17T03:20:56.419Z,15.53
2022-10-17T03:23:30.946Z,15.51
2022-10-17T03:26:06.596Z,15.49
2022-10-17T03:28:38.659Z,15.45
2022-10-17T03:31:12.372Z,15.42
2022-10-17T03:33:45.421Z,15.41
2022-10-17T03:36:19.153Z,15.46
2022-10-17T03:38:55.534Z,15.47
2022-10-17T03:41:28.742Z,15.49
2022-10-17T03:44:02.299Z,15.47
2022-10-17T03:46:38.359Z,15.39
2022-10-17T03:49:12.740Z,15.34
2022-10-17T03:51:45.063Z,15.34
2022-10-17T03:54:18.125Z,15.31
2022-10-17T03:56:52.335Z,15.27
2022-10-17T03:59:26.898Z,15.27
2022-10-17T04:02:00.006Z,15.27
2022-10-17T04:04:34.061Z,15.27
2022-10-17T04:07:08.226Z,15.26
2022-10-17T04:09:40.128Z,15.23
2022-10-17T04:12:13.473Z,15.22
2022-10-17T04:14:45.249Z,15.19
2022-10-17T04:17:43.709Z,15.16
2022-10-17T04:20:16.905Z,15.08
2022-10-17T04:22:51.942Z,15.03
2022-10-17T04:25:54.486Z,15.00
2022-10-17T04:29:20.164Z,14.98
2022-10-17T04:31:57.011Z,14.94
2022-10-17T04:34:56.648Z,14.94
2022-10-17T04:37:35.862Z,14.94
2022-10-17T04:40:16.647Z,14.97
2022-10-17T04:42:49.899Z,15.00
2022-10-17T04:45:31.117Z,15.01
2022-10-17T04:48:34.570Z,14.99
2022-10-17T04:51:12.876Z,14.99
2022-10-17T04:54:11.298Z,14.99
2022-10-17T04:57:11.424Z,14.94
2022-10-17T04:59:44.406Z,14.90
2022-10-17T05:03:04.719Z,14.89
2022-10-17T05:05:41.096Z,14.86
2022-10-17T05:11:39.081Z,14.85
2022-10-17T05:14:15.060Z,14.85
2022-10-17T05:20:21.257Z,14.91
2022-10-17T05:22:53.834Z,14.95
2022-10-17T05:29:21.093Z,15.01
2022-10-17T05:31:57.893Z,15.03
2022-10-17T05:34:36.817Z,15.05
2022-10-17T05:42:37.776Z,15.11
2022-10-17T05:45:14.645Z,15.16
2022-10-17T05:48:11.752Z,15.20
2022-10-17T05:50:58.665Z,15.19
2022-10-17T05:57:02.859Z,15.36
2022-10-17T05:59:41.147Z,15.48
2022-10-17T06:03:04.013Z,15.60
2022-10-17T06:05:40.686Z,15.71
2022-10-17T06:08:23.809Z,15.82
2022-10-17T06:10:59.352Z,15.91
2022-10-17T06:16:59.115Z,16.04
2022-10-17T06:19:32.705Z,16.11
2022-10-17T06:22:30.169Z,16.21
2022-10-17T06:25:05.693Z,16.25
2022-10-17T06:28:28.492Z,16.32
2022-10-17T06:31:13.021Z,16.42
2022-10-17T06:33:51.810Z,16.51
2022-10-17T06:36:29.722Z,16.60
2022-10-17T06:39:53.630Z,16.66
2022-10-17T06:42:31.622Z,16.77
2022-10-17T06:45:33.083Z,16.87
2022-10-17T06:48:12.155Z,16.98
2022-10-17T06:50:44.523Z,17.06
2022-10-17T06:53:46.986Z,17.15
2022-10-17T06:56:46.303Z,17.17
2022-10-17T07:02:42.446Z,17.52
2022-10-17T07:06:08.343Z,17.49
2022-10-17T07:11:45.742Z,17.71
2022-10-17T07:14:23.512Z,17.86
2022-10-17T07:16:56.847Z,17.99
2022-10-17T07:19:57.757Z,18.09
2022-10-17T07:22:56.274Z,18.24
2022-10-17T07:25:57.051Z,18.44
2022-10-17T07:36:10.351Z,19.04
2022-10-17T07:38:49.997Z,19.17
2022-10-17T07:42:10.993Z,19.32
2022-10-17T07:49:01.476Z,19.64
2022-10-17T07:52:04.771Z,19.77
2022-10-17T07:58:05.076Z,20.08
2022-10-17T08:00:52.381Z,20.26
2022-10-17T08:03:55.336Z,20.39
2022-10-17T08:06:33.968Z,20.53
2022-10-17T08:13:01.130Z,20.80
2022-10-17T08:15:35.207Z,20.93
2022-10-17T08:18:10.890Z,21.08
2022-10-17T08:20:46.630Z,21.20
2022-10-17T08:24:07.681Z,21.33
2022-10-17T08:27:56.339Z,21.45
2022-10-17T08:30:34.665Z,21.59
2022-10-17T08:33:36.722Z,21.69
2022-10-17T08:36:38.497Z,21.79
2022-10-17T08:39:36.238Z,21.97
2022-10-17T08:43:04.781Z,22.16
2022-10-17T08:45:43.105Z,22.33
2022-10-17T08:49:32.084Z,22.49
2022-10-17T08:52:57.860Z,22.68
2022-10-17T08:55:54.775Z,22.90
2022-10-17T08:58:44.778Z,23.08
2022-10-17T09:01:36.442Z,23.15
2022-10-17T09:05:05.190Z,23.27
2022-10-17T09:11:04.619Z,23.53
2022-10-17T09:14:29.265Z,23.62
2022-10-17T09:17:36.730Z,23.73
2022-10-17T09:20:26.088Z,23.86
2022-10-17T09:23:33.704Z,23.98
2022-10-17T09:26:07.702Z,24.11
2022-10-17T09:28:49.880Z,24.28
2022-10-17T09:32:28.498Z,24.46
2022-10-17T09:35:11.724Z,24.58
2022-10-17T09:37:48.927Z,24.64
2022-10-17T09:40:29.217Z,24.71
2022-10-17T09:43:12.716Z,24.86
2022-10-17T09:46:00.349Z,24.95
2022-10-17T09:51:52.167Z,25.07
2022-10-17T09:54:31.949Z,25.12
2022-10-17T10:05:03.278Z,25.41
2022-10-17T10:08:14.140Z,25.50
2022-10-17T10:10:47.310Z,25.57
2022-10-17T10:13:46.215Z,25.65
2022-10-17T10:16:58.248Z,25.78
2022-10-17T10:20:03.493Z,25.89
2022-10-17T10:23:14.052Z,25.94
2022-10-17T10:26:24.661Z,26.05
2022-10-17T10:30:15.648Z,26.21
2022-10-17T10:33:41.339Z,26.31
2022-10-17T10:37:07.761Z,26.31
2022-10-17T10:40:07.776Z,26.34
2022-10-17T10:43:05.717Z,26.45
2022-10-17T10:46:07.299Z,26.55
2022-10-17T10:49:04.127Z,26.61
2022-10-17T10:51:48.521Z,26.75
2022-10-17T10:54:30.435Z,26.85
2022-10-17T10:57:41.371Z,26.94
2022-10-17T11:00:53.316Z,27.00
2022-10-17T11:04:07.994Z,26.96
2022-10-17T11:07:14.111Z,26.96
2022-10-17T11:10:22.655Z,27.04
2022-10-17T11:13:29.685Z,27.10
2022-10-17T11:16:19.672Z,27.12
2022-10-17T11:18:54.451Z,27.15
2022-10-17T11:21:36.082Z,27.17
2022-10-17T11:24:16.471Z,27.22
2022-10-17T11:26:58.814Z,27.27
2022-10-17T11:29:33.415Z,27.37
2022-10-17T11:32:09.471Z,27.51
2022-10-17T11:34:47.445Z,27.67
2022-10-17T11:37:21.551Z,27.86
2022-10-17T11:39:56.384Z,28.10
2022-10-17T11:42:32.384Z,28.27
2022-10-17T11:45:10.028Z,28.50
2022-10-17T11:47:48.439Z,28.74
2022-10-17T11:53:18.838Z,29.26
2022-10-17T11:55:52.591Z,29.47
2022-10-17T11:58:34.118Z,29.71
2022-10-17T12:01:18.825Z,30.00
2022-10-17T12:04:05.977Z,30.24
2022-10-17T12:07:00.332Z,30.40
2022-10-17T12:09:41.241Z,30.54
2022-10-17T12:12:28.615Z,30.76
2022-10-17T12:15:31.170Z,30.91
2022-10-17T12:18:05.291Z,31.11
2022-10-17T12:20:40.163Z,31.28
2022-10-17T12:23:32.386Z,31.44
2022-10-17T12:26:06.156Z,31.62
2022-10-17T12:28:45.476Z,31.82
2022-10-17T12:31:32.664Z,32.07
2022-10-17T12:34:17.190Z,32.34
2022-10-17T12:36:50.853Z,32.48
2022-10-17T12:39:53.489Z,32.56
2022-10-17T12:42:54.191Z,32.71
2022-10-17T12:45:56.218Z,32.79
2022-10-17T12:49:07.072Z,32.91
2022-10-17T12:52:10.356Z,33.03
2022-10-17T12:54:53.533Z,33.14
2022-10-17T12:57:39.069Z,33.14
2022-10-17T13:00:22.391Z,33.23
2022-10-17T13:03:03.899Z,33.29
2022-10-17T13:05:37.967Z,33.29
2022-10-17T13:08:18.873Z,33.33
2022-10-17T13:10:53.476Z,33.45
2022-10-17T13:13:39.274Z,33.44
2022-10-17T13:16:15.318Z,33.29
2022-10-17T13:18:55.361Z,33.13
2022-10-17T13:21:29.849Z,32.90
2022-10-17T13:24:03.089Z,32.67
2022-10-17T13:26:34.894Z,32.45
2022-10-17T13:29:11.747Z,32.21
2022-10-17T13:31:46.416Z,31.92
2022-10-17T13:34:22.329Z,31.68
2022-10-17T13:36:57.065Z,31.46
2022-10-17T13:39:45.234Z,31.17
2022-10-17T13:42:28.182Z,30.89
2022-10-17T13:45:02.858Z,30.65
2022-10-17T13:47:41.467Z,30.44
2022-10-17T13:50:43.038Z,30.23
2022-10-17T13:53:28.501Z,30.04
2022-10-17T13:56:27.467Z,29.89
2022-10-17T13:59:06.117Z,29.73
2022-10-17T14:01:40.536Z,29.64
2022-10-17T14:04:19.886Z,29.71
2022-10-17T14:06:54.481Z,29.73
2022-10-17T14:09:28.805Z,29.70
2022-10-17T14:12:05.667Z,29.62
2022-10-17T14:14:58.351Z,29.49
2022-10-17T14:17:33.290Z,29.29
2022-10-17T14:20:40.681Z,29.12
2022-10-17T14:23:22.063Z,28.93
2022-10-17T14:26:08.677Z,28.78
2022-10-17T14:28:43.574Z,28.68
2022-10-17T14:31:26.149Z,28.55
2022-10-17T14:33:58.392Z,28.39
2022-10-17T14:36:41.927Z,28.26
2022-10-17T14:39:23.922Z,28.16
2022-10-17T14:42:02.014Z,28.06
2022-10-17T14:44:38.459Z,27.97
2022-10-17T14:47:42.151Z,27.90
2022-10-17T14:50:26.370Z,27.85
2022-10-17T14:53:06.956Z,27.93
2022-10-17T14:55:40.900Z,28.12
2022-10-17T14:58:30.702Z,28.25
2022-10-17T15:01:06.767Z,28.26
2022-10-17T15:03:39.145Z,28.33
2022-10-17T15:06:19.701Z,28.28
2022-10-17T15:08:52.432Z,28.12
2022-10-17T15:11:25.264Z,27.94
2022-10-17T15:13:57.471Z,27.81
2022-10-17T15:16:34.979Z,27.69
2022-10-17T15:19:07.929Z,27.54
2022-10-17T15:21:46.931Z,27.40
2022-10-17T15:24:24.034Z,27.26
2022-10-17T15:26:56.801Z,27.15
2022-10-17T15:29:33.212Z,27.03
2022-10-17T15:32:11.394Z,26.92
2022-10-17T15:34:45.775Z,26.82
2022-10-17T15:37:22.495Z,26.70
2022-10-17T15:39:57.527Z,26.57
2022-10-17T15:42:32.324Z,26.42
2022-10-17T15:45:06.000Z,26.31
2022-10-17T15:47:39.791Z,26.19
2022-10-17T15:50:16.178Z,26.08
2022-10-17T15:52:50.894Z,25.91
2022-10-17T15:55:22.887Z,25.76
2022-10-17T15:57:57.116Z,25.62
2022-10-17T16:00:30.197Z,25.47
2022-10-17T16:03:07.547Z,25.33
2022-10-17T16:05:40.670Z,25.18
2022-10-17T16:08:14.886Z,25.04
2022-10-17T16:10:47.576Z,24.90
2022-10-17T16:13:21.545Z,24.77
2022-10-17T16:15:55.096Z,24.66
2022-10-17T16:18:28.480Z,24.49
2022-10-17T16:21:06.512Z,24.33
2022-10-17T16:23:42.749Z,24.23
2022-10-17T16:26:17.702Z,24.11
2022-10-17T16:28:51.355Z,23.99
2022-10-17T16:31:28.926Z,23.84
2022-10-17T16:34:04.397Z,23.74
2022-10-17T16:36:37.916Z,23.69
2022-10-17T16:39:11.219Z,23.51
2022-10-17T16:41:46.593Z,23.34
2022-10-17T16:44:19.252Z,23.39
2022-10-17T16:46:51.081Z,23.32
2022-10-17T16:49:28.026Z,23.24
2022-10-17T16:52:01.105Z,23.16
2022-10-17T16:54:35.485Z,23.10
2022-10-17T16:57:09.261Z,23.05
2022-10-17T16:59:42.480Z,23.01
2022-10-17T17:02:17.559Z,22.98
2022-10-17T17:04:57.055Z,22.95
2022-10-17T17:07:31.063Z,22.77
2022-10-17T17:10:07.906Z,22.82
2022-10-17T17:12:39.901Z,22.80
2022-10-17T17:15:13.510Z,22.77
2022-10-17T17:17:52.481Z,22.74
2022-10-17T17:20:27.804Z,22.70
2022-10-17T17:23:01.006Z,22.68
2022-10-17T17:25:33.719Z,22.66
2022-10-17T17:28:11.291Z,22.66
2022-10-17T17:30:45.185Z,22.67
2022-10-17T17:33:20.543Z,22.64
2022-10-17T17:35:57.506Z,22.60
2022-10-17T17:38:32.021Z,22.56
2022-10-17T17:41:06.558Z,22.50
2022-10-17T17:43:41.714Z,22.47
2022-10-17T17:46:16.838Z,22.40
2022-10-17T17:48:52.268Z,22.37
2022-10-17T17:51:29.395Z,22.38
2022-10-17T17:54:04.395Z,22.19
2022-10-17T17:56:36.088Z,22.05
2022-10-17T17:59:08.753Z,22.02
2022-10-17T18:01:44.431Z,22.08
2022-10-17T18:04:17.640Z,22.06
2022-10-17T18:06:50.055Z,22.02
2022-10-17T18:09:23.680Z,21.98
2022-10-17T18:11:57.841Z,21.93
2022-10-17T18:14:30.891Z,21.90
2022-10-17T18:17:05.227Z,21.88
2022-10-17T18:19:43.040Z,21.79
2022-10-17T18:22:19.842Z,21.71
2022-10-17T18:24:54.300Z,21.67
2022-10-17T18:27:27.288Z,21.61
2022-10-17T18:30:00.975Z,21.55
2022-10-17T18:32:37.057Z,21.51
2022-10-17T18:35:11.037Z,21.44
2022-10-17T18:37:44.589Z,21.36
2022-10-17T18:40:19.061Z,21.29
2022-10-17T18:42:51.502Z,21.21
2022-10-17T18:45:25.204Z,21.14
2022-10-17T18:47:58.879Z,21.08
2022-10-17T18:50:33.188Z,21.02
2022-10-17T18:53:09.347Z,20.96
2022-10-17T18:58:24.858Z,20.82
2022-10-17T19:00:58.028Z,20.80
2022-10-17T19:03:30.757Z,20.75
2022-10-17T19:06:07.946Z,20.71
2022-10-17T19:08:41.103Z,20.67
2022-10-17T19:11:17.833Z,20.57
2022-10-17T19:13:50.629Z,20.50
2022-10-17T19:16:24.929Z,20.55
2022-10-17T19:19:04.889Z,20.50
2022-10-17T19:21:39.519Z,20.42
2022-10-17T19:24:16.188Z,20.19
2022-10-17T19:26:50.249Z,20.07
2022-10-17T19:29:26.266Z,20.10
2022-10-17T19:31:59.415Z,19.95
2022-10-17T19:34:31.607Z,19.88
2022-10-17T19:37:07.354Z,19.82
2022-10-17T19:39:41.888Z,19.77
2022-10-17T19:42:16.091Z,19.75
2022-10-17T19:44:51.844Z,19.70
2022-10-17T19:47:29.301Z,19.73
2022-10-17T19:52:43.438Z,19.61
2022-10-17T19:55:17.003Z,19.54
2022-10-17T19:57:50.999Z,19.44
2022-10-17T20:00:28.697Z,19.28
2022-10-17T20:03:04.052Z,19.01
2022-10-17T20:05:39.388Z,18.94
2022-10-17T20:08:16.520Z,18.86
2022-10-17T20:10:49.768Z,18.81
2022-10-17T20:13:23.289Z,18.78
2022-10-17T20:15:59.622Z,18.76
2022-10-17T20:18:32.752Z,18.72
2022-10-17T20:21:09.327Z,18.81
2022-10-17T20:23:44.036Z,18.72
2022-10-17T20:26:37.133Z,18.67
2022-10-17T20:29:18.281Z,18.57
2022-10-17T20:31:51.942Z,18.49
2022-10-17T20:34:28.616Z,18.54
2022-10-17T20:37:02.719Z,18.58
2022-10-17T20:39:38.326Z,18.54
2022-10-17T20:42:11.276Z,18.48
2022-10-17T20:47:39.841Z,18.37
2022-10-17T20:50:12.447Z,18.34
2022-10-17T20:52:44.626Z,18.27
2022-10-17T20:55:18.946Z,18.25
2022-10-17T20:57:52.108Z,18.22
2022-10-17T21:00:25.892Z,18.16
2022-10-17T21:02:59.804Z,18.09
2022-10-17T21:05:33.783Z,18.01
2022-10-17T21:08:08.948Z,17.98
2022-10-17T21:10:42.706Z,17.95
2022-10-17T21:13:17.079Z,17.90
2022-10-17T21:15:49.914Z,17.85
2022-10-17T21:18:23.748Z,17.82
2022-10-17T21:20:56.966Z,17.78
2022-10-17T21:23:29.657Z,17.77
2022-10-17T21:26:08.513Z,17.75
2022-10-17T21:28:43.732Z,17.68
2022-10-17T21:31:18.736Z,17.65
2022-10-17T21:33:52.644Z,17.63
2022-10-17T21:36:25.911Z,17.59
2022-10-17T21:38:59.086Z,17.54
2022-10-17T21:41:35.494Z,17.47
2022-10-17T21:44:11.506Z,17.27
2022-10-17T21:46:45.412Z,17.31
2022-10-17T21:49:21.161Z,17.34
2022-10-17T21:51:54.865Z,17.29
2022-10-17T22:01:46.300Z,17.15
2022-10-17T22:04:20.047Z,17.04
2022-10-17T22:06:53.302Z,16.99
2022-10-17T22:09:27.260Z,16.97
2022-10-17T22:12:01.245Z,16.92
2022-10-17T22:14:34.930Z,16.87
2022-10-17T22:17:07.353Z,16.85
2022-10-17T22:19:39.971Z,16.84
2022-10-17T22:22:12.785Z,16.79
2022-10-17T22:24:44.894Z,16.76
2022-10-17T22:27:19.218Z,16.76
2022-10-17T22:29:54.321Z,16.76
2022-10-17T22:32:27.820Z,16.55
2022-10-17T22:35:05.057Z,16.46
2022-10-17T22:37:38.383Z,16.41
2022-10-17T22:40:11.978Z,16.41
2022-10-17T22:42:45.208Z,16.38
2022-10-17T22:45:17.754Z,16.45
2022-10-17T22:47:49.941Z,16.54
2022-10-17T22:50:24.085Z,16.51
2022-10-17T22:52:56.465Z,16.45
2022-10-17T22:55:29.968Z,16.42
2022-10-17T22:58:05.229Z,16.40
2022-10-17T23:00:37.188Z,16.40
2022-10-17T23:03:09.977Z,16.36
2022-10-17T23:05:42.386Z,16.34
2022-10-17T23:08:16.683Z,16.28
2022-10-17T23:10:50.116Z,16.27
2022-10-17T23:13:22.621Z,16.24
2022-10-17T23:15:56.662Z,16.20
2022-10-17T23:21:06.973Z,16.15
2022-10-17T23:23:39.488Z,16.09
2022-10-17T23:26:17.014Z,16.07
2022-10-17T23:28:51.145Z,16.04
2022-10-17T23:31:24.284Z,15.98
2022-10-17T23:33:56.202Z,15.96
2022-10-17T23:36:28.317Z,15.95
2022-10-17T23:39:01.071Z,15.94
2022-10-17T23:41:34.587Z,15.91
2022-10-17T23:44:08.465Z,15.89
2022-10-17T23:46:40.860Z,15.83
2022-10-17T23:49:15.329Z,15.77
2022-10-17T23:51:50.225Z,15.76
2022-10-17T23:54:22.454Z,15.74
2022-10-17T23:56:56.972Z,15.76
2022-10-17T23:59:29.599Z,15.71
